sensor_id;sensor_type;location;lat;lon;timestamp;P1;durP1;ratioP1;P2;durP2;ratioP2
80698;SDS011;70062;51.658;5.658;2023-11-18T00:00:23;7.40;;;5.50;;
80698;SDS011;70062;51.658;5.658;2023-11-18T00:02:50;6.30;;;5.10;;
80698;SDS011;70062;51.658;5.658;2023-11-18T00:05:16;6.80;;;5.10;;
80698;SDS011;70062;51.658;5.658;2023-11-18T00:07:41;7.10;;;5.50;;
80698;SDS011;70062;51.658;5.658;2023-11-18T00:10:07;7.00;;;5.30;;
80698;SDS011;70062;51.658;5.658;2023-11-18T00:12:33;7.00;;;5.40;;
80698;SDS011;70062;51.658;5.658;2023-11-18T00:15:02;6.40;;;4.90;;
80698;SDS011;70062;51.658;5.658;2023-11-18T00:17:32;5.70;;;4.70;;
80698;SDS011;70062;51.658;5.658;2023-11-18T00:23:31;6.40;;;5.20;;
80698;SDS011;70062;51.658;5.658;2023-11-18T00:25:56;6.40;;;5.10;;
80698;SDS011;70062;51.658;5.658;2023-11-18T00:28:22;7.00;;;5.40;;
80698;SDS011;70062;51.658;5.658;2023-11-18T00:30:48;7.20;;;5.10;;
80698;SDS011;70062;51.658;5.658;2023-11-18T00:33:13;7.30;;;5.30;;
80698;SDS011;70062;51.658;5.658;2023-11-18T00:35:38;7.90;;;5.50;;
80698;SDS011;70062;51.658;5.658;2023-11-18T00:38:04;7.40;;;5.20;;
80698;SDS011;70062;51.658;5.658;2023-11-18T00:40:29;6.60;;;5.30;;
80698;SDS011;70062;51.658;5.658;2023-11-18T00:42:55;6.70;;;5.30;;
80698;SDS011;70062;51.658;5.658;2023-11-18T00:49:14;6.30;;;4.80;;
80698;SDS011;70062;51.658;5.658;2023-11-18T00:51:41;6.20;;;5.00;;
80698;SDS011;70062;51.658;5.658;2023-11-18T00:54:15;6.10;;;5.00;;
80698;SDS011;70062;51.658;5.658;2023-11-18T00:56:45;7.40;;;5.30;;
80698;SDS011;70062;51.658;5.658;2023-11-18T00:59:10;6.40;;;5.00;;
80698;SDS011;70062;51.658;5.658;2023-11-18T01:01:39;6.30;;;5.30;;
80698;SDS011;70062;51.658;5.658;2023-11-18T01:04:10;6.40;;;5.20;;
80698;SDS011;70062;51.658;5.658;2023-11-18T01:09:08;7.50;;;5.30;;
80698;SDS011;70062;51.658;5.658;2023-11-18T01:11:39;7.00;;;5.60;;
80698;SDS011;70062;51.658;5.658;2023-11-18T01:14:14;7.00;;;5.60;;
80698;SDS011;70062;51.658;5.658;2023-11-18T01:16:39;8.10;;;5.40;;
80698;SDS011;70062;51.658;5.658;2023-11-18T01:19:09;8.00;;;5.40;;
80698;SDS011;70062;51.658;5.658;2023-11-18T01:21:35;6.20;;;4.80;;
80698;SDS011;70062;51.658;5.658;2023-11-18T01:24:01;8.20;;;5.50;;
80698;SDS011;70062;51.658;5.658;2023-11-18T01:26:29;6.50;;;5.10;;
80698;SDS011;70062;51.658;5.658;2023-11-18T01:29:02;7.90;;;5.30;;
80698;SDS011;70062;51.658;5.658;2023-11-18T01:31:28;6.90;;;5.50;;
80698;SDS011;70062;51.658;5.658;2023-11-18T01:33:55;7.00;;;5.40;;
80698;SDS011;70062;51.658;5.658;2023-11-18T01:36:22;6.80;;;5.40;;
80698;SDS011;70062;51.658;5.658;2023-11-18T01:38:50;6.50;;;5.30;;
80698;SDS011;70062;51.658;5.658;2023-11-18T01:41:39;5.80;;;4.80;;
80698;SDS011;70062;51.658;5.658;2023-11-18T01:44:05;6.20;;;4.80;;
80698;SDS011;70062;51.658;5.658;2023-11-18T01:46:30;7.10;;;5.60;;
80698;SDS011;70062;51.658;5.658;2023-11-18T01:48:59;6.60;;;5.30;;
80698;SDS011;70062;51.658;5.658;2023-11-18T01:51:33;6.90;;;5.70;;
80698;SDS011;70062;51.658;5.658;2023-11-18T01:54:00;6.80;;;5.20;;
80698;SDS011;70062;51.658;5.658;2023-11-18T01:56:27;6.90;;;5.40;;
80698;SDS011;70062;51.658;5.658;2023-11-18T01:58:53;6.40;;;5.00;;
80698;SDS011;70062;51.658;5.658;2023-11-18T02:01:18;6.60;;;5.20;;
80698;SDS011;70062;51.658;5.658;2023-11-18T02:03:44;6.90;;;5.40;;
80698;SDS011;70062;51.658;5.658;2023-11-18T02:06:10;7.40;;;5.10;;
80698;SDS011;70062;51.658;5.658;2023-11-18T02:08:36;6.70;;;5.10;;
80698;SDS011;70062;51.658;5.658;2023-11-18T02:11:23;6.30;;;4.80;;
80698;SDS011;70062;51.658;5.658;2023-11-18T02:14:03;6.10;;;4.70;;
80698;SDS011;70062;51.658;5.658;2023-11-18T02:16:35;7.20;;;5.00;;
80698;SDS011;70062;51.658;5.658;2023-11-18T02:19:03;7.80;;;5.20;;
80698;SDS011;70062;51.658;5.658;2023-11-18T02:21:39;6.70;;;5.10;;
80698;SDS011;70062;51.658;5.658;2023-11-18T02:24:10;6.20;;;5.10;;
80698;SDS011;70062;51.658;5.658;2023-11-18T02:26:38;6.30;;;5.00;;
80698;SDS011;70062;51.658;5.658;2023-11-18T02:29:17;6.80;;;5.30;;
80698;SDS011;70062;51.658;5.658;2023-11-18T02:31:43;6.60;;;5.40;;
80698;SDS011;70062;51.658;5.658;2023-11-18T02:34:14;6.10;;;4.80;;
80698;SDS011;70062;51.658;5.658;2023-11-18T02:36:49;6.60;;;5.40;;
80698;SDS011;70062;51.658;5.658;2023-11-18T02:39:20;6.30;;;5.00;;
80698;SDS011;70062;51.658;5.658;2023-11-18T02:41:58;6.00;;;5.10;;
80698;SDS011;70062;51.658;5.658;2023-11-18T02:44:27;6.20;;;5.30;;
80698;SDS011;70062;51.658;5.658;2023-11-18T02:46:57;6.50;;;5.40;;
80698;SDS011;70062;51.658;5.658;2023-11-18T02:49:23;6.40;;;5.00;;
80698;SDS011;70062;51.658;5.658;2023-11-18T02:58:52;6.40;;;5.00;;
80698;SDS011;70062;51.658;5.658;2023-11-18T03:01:25;6.80;;;5.40;;
80698;SDS011;70062;51.658;5.658;2023-11-18T03:03:52;5.90;;;5.10;;
80698;SDS011;70062;51.658;5.658;2023-11-18T03:06:20;6.20;;;5.00;;
80698;SDS011;70062;51.658;5.658;2023-11-18T03:08:47;6.20;;;4.80;;
80698;SDS011;70062;51.658;5.658;2023-11-18T03:11:12;6.50;;;5.10;;
80698;SDS011;70062;51.658;5.658;2023-11-18T03:13:38;5.80;;;5.10;;
80698;SDS011;70062;51.658;5.658;2023-11-18T03:16:07;6.00;;;5.00;;
80698;SDS011;70062;51.658;5.658;2023-11-18T03:18:37;7.10;;;5.20;;
80698;SDS011;70062;51.658;5.658;2023-11-18T03:21:16;6.50;;;4.80;;
80698;SDS011;70062;51.658;5.658;2023-11-18T03:23:42;6.60;;;5.10;;
80698;SDS011;70062;51.658;5.658;2023-11-18T03:26:09;6.10;;;5.00;;
80698;SDS011;70062;51.658;5.658;2023-11-18T03:28:37;6.60;;;5.00;;
80698;SDS011;70062;51.658;5.658;2023-11-18T03:31:04;6.40;;;5.50;;
80698;SDS011;70062;51.658;5.658;2023-11-18T03:33:31;6.70;;;5.00;;
80698;SDS011;70062;51.658;5.658;2023-11-18T03:36:04;7.00;;;5.50;;
80698;SDS011;70062;51.658;5.658;2023-11-18T03:38:31;6.20;;;4.90;;
80698;SDS011;70062;51.658;5.658;2023-11-18T03:41:04;5.70;;;5.00;;
80698;SDS011;70062;51.658;5.658;2023-11-18T03:43:30;6.80;;;5.30;;
80698;SDS011;70062;51.658;5.658;2023-11-18T03:45:55;6.50;;;5.20;;
80698;SDS011;70062;51.658;5.658;2023-11-18T03:48:23;6.30;;;4.90;;
80698;SDS011;70062;51.658;5.658;2023-11-18T03:50:50;5.40;;;4.70;;
80698;SDS011;70062;51.658;5.658;2023-11-18T03:53:16;6.10;;;5.10;;
80698;SDS011;70062;51.658;5.658;2023-11-18T03:55:48;5.90;;;4.60;;
80698;SDS011;70062;51.658;5.658;2023-11-18T03:58:16;7.00;;;5.00;;
80698;SDS011;70062;51.658;5.658;2023-11-18T04:17:41;6.30;;;5.50;;
80698;SDS011;70062;51.658;5.658;2023-11-18T04:20:06;6.50;;;4.80;;
80698;SDS011;70062;51.658;5.658;2023-11-18T04:22:39;5.90;;;4.80;;
80698;SDS011;70062;51.658;5.658;2023-11-18T04:25:06;8.20;;;5.90;;
80698;SDS011;70062;51.658;5.658;2023-11-18T04:27:33;5.80;;;4.90;;
80698;SDS011;70062;51.658;5.658;2023-11-18T04:29:58;5.50;;;4.80;;
80698;SDS011;70062;51.658;5.658;2023-11-18T04:32:24;6.20;;;5.20;;
80698;SDS011;70062;51.658;5.658;2023-11-18T04:34:52;6.10;;;4.80;;
80698;SDS011;70062;51.658;5.658;2023-11-18T04:37:17;7.00;;;5.30;;
80698;SDS011;70062;51.658;5.658;2023-11-18T04:39:53;5.80;;;4.80;;
80698;SDS011;70062;51.658;5.658;2023-11-18T04:42:20;6.50;;;4.80;;
80698;SDS011;70062;51.658;5.658;2023-11-18T04:44:45;8.50;;;5.10;;
80698;SDS011;70062;51.658;5.658;2023-11-18T04:47:10;5.60;;;4.80;;
80698;SDS011;70062;51.658;5.658;2023-11-18T04:49:42;5.60;;;4.80;;
80698;SDS011;70062;51.658;5.658;2023-11-18T04:52:13;5.90;;;4.90;;
80698;SDS011;70062;51.658;5.658;2023-11-18T04:54:39;6.50;;;5.00;;
80698;SDS011;70062;51.658;5.658;2023-11-18T04:57:05;5.80;;;4.90;;
80698;SDS011;70062;51.658;5.658;2023-11-18T04:59:35;5.20;;;4.50;;
80698;SDS011;70062;51.658;5.658;2023-11-18T05:02:04;5.30;;;4.50;;
80698;SDS011;70062;51.658;5.658;2023-11-18T05:04:39;5.60;;;4.80;;
80698;SDS011;70062;51.658;5.658;2023-11-18T05:07:06;5.70;;;4.70;;
80698;SDS011;70062;51.658;5.658;2023-11-18T05:09:31;5.60;;;4.70;;
80698;SDS011;70062;51.658;5.658;2023-11-18T05:11:57;6.20;;;4.80;;
80698;SDS011;70062;51.658;5.658;2023-11-18T05:14:23;7.20;;;4.60;;
80698;SDS011;70062;51.658;5.658;2023-11-18T05:16:50;8.00;;;4.90;;
80698;SDS011;70062;51.658;5.658;2023-11-18T05:19:21;6.60;;;5.00;;
80698;SDS011;70062;51.658;5.658;2023-11-18T05:21:46;6.40;;;5.10;;
80698;SDS011;70062;51.658;5.658;2023-11-18T05:24:16;5.50;;;4.70;;
80698;SDS011;70062;51.658;5.658;2023-11-18T05:26:45;6.10;;;4.60;;
80698;SDS011;70062;51.658;5.658;2023-11-18T05:29:11;6.10;;;5.00;;
80698;SDS011;70062;51.658;5.658;2023-11-18T05:31:46;5.60;;;4.50;;
80698;SDS011;70062;51.658;5.658;2023-11-18T05:34:18;5.60;;;4.50;;
80698;SDS011;70062;51.658;5.658;2023-11-18T05:36:45;6.10;;;4.90;;
80698;SDS011;70062;51.658;5.658;2023-11-18T05:39:11;6.60;;;4.90;;
80698;SDS011;70062;51.658;5.658;2023-11-18T05:41:37;6.30;;;4.80;;
80698;SDS011;70062;51.658;5.658;2023-11-18T05:44:09;6.70;;;4.40;;
80698;SDS011;70062;51.658;5.658;2023-11-18T05:46:58;6.60;;;4.80;;
80698;SDS011;70062;51.658;5.658;2023-11-18T05:49:24;6.10;;;4.80;;
80698;SDS011;70062;51.658;5.658;2023-11-18T05:51:52;5.60;;;4.80;;
80698;SDS011;70062;51.658;5.658;2023-11-18T05:54:23;5.40;;;4.60;;
80698;SDS011;70062;51.658;5.658;2023-11-18T05:56:48;5.50;;;4.60;;
80698;SDS011;70062;51.658;5.658;2023-11-18T05:59:16;6.20;;;4.60;;
80698;SDS011;70062;51.658;5.658;2023-11-18T06:01:44;5.10;;;4.30;;
80698;SDS011;70062;51.658;5.658;2023-11-18T06:04:16;5.70;;;4.80;;
80698;SDS011;70062;51.658;5.658;2023-11-18T06:06:42;5.50;;;4.40;;
80698;SDS011;70062;51.658;5.658;2023-11-18T06:09:07;5.30;;;4.30;;
80698;SDS011;70062;51.658;5.658;2023-11-18T06:11:43;6.00;;;4.50;;
80698;SDS011;70062;51.658;5.658;2023-11-18T06:14:09;4.90;;;4.30;;
80698;SDS011;70062;51.658;5.658;2023-11-18T06:16:38;7.30;;;4.70;;
80698;SDS011;70062;51.658;5.658;2023-11-18T06:19:06;5.10;;;4.20;;
80698;SDS011;70062;51.658;5.658;2023-11-18T06:21:31;5.60;;;4.30;;
80698;SDS011;70062;51.658;5.658;2023-11-18T06:23:57;5.70;;;4.60;;
80698;SDS011;70062;51.658;5.658;2023-11-18T06:26:23;6.10;;;4.80;;
80698;SDS011;70062;51.658;5.658;2023-11-18T06:28:52;5.40;;;4.60;;
80698;SDS011;70062;51.658;5.658;2023-11-18T06:31:21;5.30;;;4.10;;
80698;SDS011;70062;51.658;5.658;2023-11-18T06:33:48;5.40;;;4.50;;
80698;SDS011;70062;51.658;5.658;2023-11-18T06:39:01;5.40;;;4.50;;
80698;SDS011;70062;51.658;5.658;2023-11-18T06:41:30;5.80;;;4.40;;
80698;SDS011;70062;51.658;5.658;2023-11-18T06:43:59;5.50;;;4.30;;
80698;SDS011;70062;51.658;5.658;2023-11-18T06:46:34;4.50;;;3.90;;
80698;SDS011;70062;51.658;5.658;2023-11-18T06:49:02;5.00;;;4.00;;
80698;SDS011;70062;51.658;5.658;2023-11-18T06:51:30;5.40;;;4.10;;
80698;SDS011;70062;51.658;5.658;2023-11-18T06:54:00;5.70;;;4.60;;
80698;SDS011;70062;51.658;5.658;2023-11-18T06:56:27;5.90;;;4.20;;
80698;SDS011;70062;51.658;5.658;2023-11-18T06:58:53;4.90;;;4.40;;
80698;SDS011;70062;51.658;5.658;2023-11-18T07:01:20;4.70;;;4.00;;
80698;SDS011;70062;51.658;5.658;2023-11-18T07:03:57;4.70;;;4.10;;
80698;SDS011;70062;51.658;5.658;2023-11-18T07:06:23;4.60;;;4.00;;
80698;SDS011;70062;51.658;5.658;2023-11-18T07:08:48;5.20;;;4.00;;
80698;SDS011;70062;51.658;5.658;2023-11-18T07:11:14;5.50;;;4.50;;
80698;SDS011;70062;51.658;5.658;2023-11-18T07:13:40;4.70;;;4.00;;
80698;SDS011;70062;51.658;5.658;2023-11-18T07:16:06;5.40;;;4.20;;
80698;SDS011;70062;51.658;5.658;2023-11-18T07:18:38;5.30;;;4.40;;
80698;SDS011;70062;51.658;5.658;2023-11-18T07:21:05;6.00;;;4.10;;
80698;SDS011;70062;51.658;5.658;2023-11-18T07:23:31;4.80;;;4.10;;
80698;SDS011;70062;51.658;5.658;2023-11-18T07:25:57;5.50;;;4.10;;
80698;SDS011;70062;51.658;5.658;2023-11-18T07:28:22;6.20;;;4.40;;
80698;SDS011;70062;51.658;5.658;2023-11-18T07:30:48;5.60;;;4.20;;
80698;SDS011;70062;51.658;5.658;2023-11-18T07:33:16;4.90;;;4.00;;
80698;SDS011;70062;51.658;5.658;2023-11-18T07:35:42;4.90;;;3.70;;
80698;SDS011;70062;51.658;5.658;2023-11-18T07:38:08;6.10;;;4.00;;
80698;SDS011;70062;51.658;5.658;2023-11-18T07:40:35;4.70;;;3.90;;
80698;SDS011;70062;51.658;5.658;2023-11-18T07:43:02;5.20;;;3.80;;
80698;SDS011;70062;51.658;5.658;2023-11-18T07:45:34;4.80;;;3.60;;
80698;SDS011;70062;51.658;5.658;2023-11-18T07:48:02;4.80;;;3.90;;
80698;SDS011;70062;51.658;5.658;2023-11-18T07:50:34;4.30;;;3.70;;
80698;SDS011;70062;51.658;5.658;2023-11-18T07:53:05;5.20;;;4.20;;
80698;SDS011;70062;51.658;5.658;2023-11-18T07:55:35;4.60;;;3.70;;
80698;SDS011;70062;51.658;5.658;2023-11-18T07:58:10;4.50;;;3.90;;
80698;SDS011;70062;51.658;5.658;2023-11-18T08:00:37;4.40;;;3.70;;
80698;SDS011;70062;51.658;5.658;2023-11-18T08:03:04;4.50;;;3.50;;
80698;SDS011;70062;51.658;5.658;2023-11-18T08:14:00;6.20;;;3.60;;
80698;SDS011;70062;51.658;5.658;2023-11-18T08:16:28;5.50;;;3.30;;
80698;SDS011;70062;51.658;5.658;2023-11-18T08:18:57;4.80;;;3.00;;
80698;SDS011;70062;51.658;5.658;2023-11-18T08:21:34;5.80;;;3.50;;
80698;SDS011;70062;51.658;5.658;2023-11-18T08:23:59;3.60;;;2.80;;
80698;SDS011;70062;51.658;5.658;2023-11-18T08:26:25;4.20;;;3.00;;
80698;SDS011;70062;51.658;5.658;2023-11-18T08:28:51;5.90;;;3.10;;
80698;SDS011;70062;51.658;5.658;2023-11-18T08:31:16;3.90;;;2.90;;
80698;SDS011;70062;51.658;5.658;2023-11-18T08:33:42;4.90;;;3.20;;
80698;SDS011;70062;51.658;5.658;2023-11-18T08:36:08;4.30;;;3.10;;
80698;SDS011;70062;51.658;5.658;2023-11-18T08:38:33;3.90;;;2.90;;
80698;SDS011;70062;51.658;5.658;2023-11-18T08:41:00;4.10;;;2.80;;
80698;SDS011;70062;51.658;5.658;2023-11-18T08:43:25;4.60;;;2.90;;
80698;SDS011;70062;51.658;5.658;2023-11-18T08:45:53;5.30;;;3.00;;
80698;SDS011;70062;51.658;5.658;2023-11-18T08:48:19;5.00;;;3.20;;
80698;SDS011;70062;51.658;5.658;2023-11-18T08:50:45;4.20;;;2.90;;
80698;SDS011;70062;51.658;5.658;2023-11-18T08:53:11;4.60;;;2.80;;
80698;SDS011;70062;51.658;5.658;2023-11-18T08:55:37;3.60;;;3.00;;
80698;SDS011;70062;51.658;5.658;2023-11-18T08:58:06;4.20;;;2.80;;
80698;SDS011;70062;51.658;5.658;2023-11-18T09:00:44;5.50;;;2.80;;
80698;SDS011;70062;51.658;5.658;2023-11-18T09:03:19;5.50;;;2.90;;
80698;SDS011;70062;51.658;5.658;2023-11-18T09:05:57;5.30;;;2.90;;
80698;SDS011;70062;51.658;5.658;2023-11-18T09:08:27;3.90;;;3.10;;
80698;SDS011;70062;51.658;5.658;2023-11-18T09:10:58;4.50;;;3.10;;
80698;SDS011;70062;51.658;5.658;2023-11-18T09:13:25;2.90;;;2.60;;
80698;SDS011;70062;51.658;5.658;2023-11-18T09:16:04;3.80;;;2.90;;
80698;SDS011;70062;51.658;5.658;2023-11-18T09:18:34;4.90;;;2.90;;
80698;SDS011;70062;51.658;5.658;2023-11-18T09:21:04;3.40;;;2.80;;
80698;SDS011;70062;51.658;5.658;2023-11-18T09:23:32;3.30;;;2.70;;
80698;SDS011;70062;51.658;5.658;2023-11-18T09:26:00;4.70;;;2.80;;
80698;SDS011;70062;51.658;5.658;2023-11-18T09:28:26;3.70;;;2.90;;
80698;SDS011;70062;51.658;5.658;2023-11-18T09:30:55;4.00;;;2.80;;
80698;SDS011;70062;51.658;5.658;2023-11-18T09:33:28;3.40;;;2.70;;
80698;SDS011;70062;51.658;5.658;2023-11-18T09:36:00;3.50;;;2.80;;
80698;SDS011;70062;51.658;5.658;2023-11-18T09:38:30;4.00;;;2.50;;
80698;SDS011;70062;51.658;5.658;2023-11-18T09:40:59;3.70;;;2.60;;
80698;SDS011;70062;51.658;5.658;2023-11-18T09:43:31;4.10;;;3.00;;
80698;SDS011;70062;51.658;5.658;2023-11-18T09:46:07;4.20;;;3.10;;
80698;SDS011;70062;51.658;5.658;2023-11-18T09:48:49;4.50;;;2.50;;
80698;SDS011;70062;51.658;5.658;2023-11-18T09:51:21;3.70;;;2.70;;
80698;SDS011;70062;51.658;5.658;2023-11-18T09:53:51;3.20;;;2.40;;
80698;SDS011;70062;51.658;5.658;2023-11-18T09:56:30;3.50;;;2.50;;
80698;SDS011;70062;51.658;5.658;2023-11-18T10:01:59;3.00;;;2.50;;
80698;SDS011;70062;51.658;5.658;2023-11-18T10:04:29;4.00;;;2.60;;
80698;SDS011;70062;51.658;5.658;2023-11-18T10:06:56;4.30;;;2.70;;
80698;SDS011;70062;51.658;5.658;2023-11-18T10:09:26;4.90;;;2.70;;
80698;SDS011;70062;51.658;5.658;2023-11-18T10:12:02;4.80;;;2.60;;
80698;SDS011;70062;51.658;5.658;2023-11-18T10:14:32;3.60;;;2.40;;
80698;SDS011;70062;51.658;5.658;2023-11-18T10:16:58;4.30;;;2.70;;
80698;SDS011;70062;51.658;5.658;2023-11-18T10:19:49;3.40;;;2.60;;
80698;SDS011;70062;51.658;5.658;2023-11-18T10:22:27;3.80;;;2.70;;
80698;SDS011;70062;51.658;5.658;2023-11-18T10:24:54;3.10;;;2.50;;
80698;SDS011;70062;51.658;5.658;2023-11-18T10:27:22;4.10;;;2.30;;
80698;SDS011;70062;51.658;5.658;2023-11-18T10:29:55;3.50;;;2.40;;
80698;SDS011;70062;51.658;5.658;2023-11-18T10:32:22;3.20;;;2.50;;
80698;SDS011;70062;51.658;5.658;2023-11-18T10:34:48;4.10;;;2.50;;
80698;SDS011;70062;51.658;5.658;2023-11-18T10:39:43;3.80;;;2.50;;
80698;SDS011;70062;51.658;5.658;2023-11-18T10:42:12;3.90;;;2.70;;
80698;SDS011;70062;51.658;5.658;2023-11-18T10:44:37;3.40;;;2.50;;
80698;SDS011;70062;51.658;5.658;2023-11-18T10:47:02;3.20;;;2.40;;
80698;SDS011;70062;51.658;5.658;2023-11-18T10:49:28;4.20;;;2.50;;
80698;SDS011;70062;51.658;5.658;2023-11-18T10:51:55;3.20;;;2.60;;
80698;SDS011;70062;51.658;5.658;2023-11-18T10:54:23;4.30;;;2.80;;
80698;SDS011;70062;51.658;5.658;2023-11-18T10:56:51;3.30;;;2.30;;
80698;SDS011;70062;51.658;5.658;2023-11-18T10:59:22;2.70;;;2.30;;
80698;SDS011;70062;51.658;5.658;2023-11-18T11:01:48;2.70;;;2.20;;
80698;SDS011;70062;51.658;5.658;2023-11-18T11:04:14;6.10;;;2.60;;
80698;SDS011;70062;51.658;5.658;2023-11-18T11:06:46;3.30;;;2.50;;
80698;SDS011;70062;51.658;5.658;2023-11-18T11:09:18;4.70;;;2.50;;
80698;SDS011;70062;51.658;5.658;2023-11-18T11:14:25;3.30;;;2.30;;
80698;SDS011;70062;51.658;5.658;2023-11-18T11:17:00;4.20;;;2.40;;
80698;SDS011;70062;51.658;5.658;2023-11-18T11:19:55;3.00;;;2.20;;
80698;SDS011;70062;51.658;5.658;2023-11-18T11:25:41;4.90;;;3.50;;
80698;SDS011;70062;51.658;5.658;2023-11-18T11:28:20;9.10;;;3.90;;
80698;SDS011;70062;51.658;5.658;2023-11-18T11:30:50;6.50;;;3.70;;
80698;SDS011;70062;51.658;5.658;2023-11-18T11:33:21;5.50;;;3.60;;
80698;SDS011;70062;51.658;5.658;2023-11-18T11:35:53;8.50;;;3.80;;
80698;SDS011;70062;51.658;5.658;2023-11-18T11:38:24;6.40;;;3.50;;
80698;SDS011;70062;51.658;5.658;2023-11-18T11:40:51;4.40;;;3.20;;
80698;SDS011;70062;51.658;5.658;2023-11-18T11:43:20;9.50;;;3.60;;
80698;SDS011;70062;51.658;5.658;2023-11-18T11:45:53;5.20;;;3.50;;
80698;SDS011;70062;51.658;5.658;2023-11-18T11:48:20;4.00;;;3.20;;
80698;SDS011;70062;51.658;5.658;2023-11-18T11:53:40;3.80;;;2.80;;
80698;SDS011;70062;51.658;5.658;2023-11-18T11:56:10;3.90;;;2.90;;
80698;SDS011;70062;51.658;5.658;2023-11-18T11:58:44;5.20;;;3.00;;
80698;SDS011;70062;51.658;5.658;2023-11-18T12:01:21;4.80;;;3.00;;
80698;SDS011;70062;51.658;5.658;2023-11-18T12:04:09;5.60;;;3.00;;
80698;SDS011;70062;51.658;5.658;2023-11-18T12:06:46;4.30;;;2.90;;
80698;SDS011;70062;51.658;5.658;2023-11-18T12:09:18;4.90;;;2.90;;
80698;SDS011;70062;51.658;5.658;2023-11-18T12:11:45;4.20;;;2.70;;
80698;SDS011;70062;51.658;5.658;2023-11-18T12:14:14;3.70;;;2.50;;
80698;SDS011;70062;51.658;5.658;2023-11-18T12:17:01;6.90;;;2.50;;
80698;SDS011;70062;51.658;5.658;2023-11-18T12:19:36;3.80;;;2.80;;
80698;SDS011;70062;51.658;5.658;2023-11-18T12:22:15;5.30;;;2.70;;
80698;SDS011;70062;51.658;5.658;2023-11-18T12:30:52;5.80;;;2.70;;
80698;SDS011;70062;51.658;5.658;2023-11-18T12:35:20;4.80;;;2.40;;
80698;SDS011;70062;51.658;5.658;2023-11-18T12:43:42;5.30;;;2.30;;
80698;SDS011;70062;51.658;5.658;2023-11-18T12:49:13;4.70;;;2.50;;
80698;SDS011;70062;51.658;5.658;2023-11-18T12:51:50;4.50;;;2.50;;
80698;SDS011;70062;51.658;5.658;2023-11-18T12:54:19;4.10;;;2.50;;
80698;SDS011;70062;51.658;5.658;2023-11-18T12:56:50;4.40;;;2.60;;
80698;SDS011;70062;51.658;5.658;2023-11-18T12:59:22;4.10;;;2.40;;
80698;SDS011;70062;51.658;5.658;2023-11-18T13:02:06;5.70;;;2.20;;
80698;SDS011;70062;51.658;5.658;2023-11-18T13:04:49;3.50;;;2.30;;
80698;SDS011;70062;51.658;5.658;2023-11-18T13:10:21;3.00;;;2.40;;
80698;SDS011;70062;51.658;5.658;2023-11-18T13:12:47;5.50;;;2.50;;
80698;SDS011;70062;51.658;5.658;2023-11-18T13:15:12;3.40;;;2.40;;
80698;SDS011;70062;51.658;5.658;2023-11-18T13:17:39;4.00;;;2.40;;
80698;SDS011;70062;51.658;5.658;2023-11-18T13:20:28;3.30;;;2.40;;
80698;SDS011;70062;51.658;5.658;2023-11-18T13:22:56;4.00;;;2.50;;
80698;SDS011;70062;51.658;5.658;2023-11-18T13:25:22;3.00;;;2.40;;
80698;SDS011;70062;51.658;5.658;2023-11-18T13:27:55;3.90;;;2.30;;
80698;SDS011;70062;51.658;5.658;2023-11-18T13:30:23;4.90;;;2.60;;
80698;SDS011;70062;51.658;5.658;2023-11-18T13:35:51;5.40;;;2.90;;
80698;SDS011;70062;51.658;5.658;2023-11-18T13:38:17;3.90;;;2.70;;
80698;SDS011;70062;51.658;5.658;2023-11-18T13:40:46;4.90;;;2.70;;
80698;SDS011;70062;51.658;5.658;2023-11-18T13:43:12;3.40;;;2.80;;
80698;SDS011;70062;51.658;5.658;2023-11-18T13:45:38;3.30;;;2.70;;
80698;SDS011;70062;51.658;5.658;2023-11-18T13:48:07;4.20;;;2.70;;
80698;SDS011;70062;51.658;5.658;2023-11-18T13:50:40;3.50;;;2.80;;
80698;SDS011;70062;51.658;5.658;2023-11-18T13:53:07;5.20;;;2.70;;
80698;SDS011;70062;51.658;5.658;2023-11-18T13:55:33;4.30;;;3.10;;
80698;SDS011;70062;51.658;5.658;2023-11-18T13:58:01;3.60;;;2.90;;
80698;SDS011;70062;51.658;5.658;2023-11-18T14:00:27;3.80;;;2.80;;
80698;SDS011;70062;51.658;5.658;2023-11-18T14:02:56;3.60;;;2.60;;
80698;SDS011;70062;51.658;5.658;2023-11-18T14:05:22;5.00;;;2.80;;
80698;SDS011;70062;51.658;5.658;2023-11-18T14:07:53;4.10;;;2.90;;
80698;SDS011;70062;51.658;5.658;2023-11-18T14:10:34;4.40;;;2.60;;
80698;SDS011;70062;51.658;5.658;2023-11-18T14:13:06;3.80;;;2.60;;
80698;SDS011;70062;51.658;5.658;2023-11-18T14:15:35;4.70;;;3.10;;
80698;SDS011;70062;51.658;5.658;2023-11-18T14:18:01;3.30;;;2.50;;
80698;SDS011;70062;51.658;5.658;2023-11-18T14:20:27;4.90;;;2.80;;
80698;SDS011;70062;51.658;5.658;2023-11-18T14:22:53;6.60;;;2.60;;
80698;SDS011;70062;51.658;5.658;2023-11-18T14:25:19;3.80;;;2.90;;
80698;SDS011;70062;51.658;5.658;2023-11-18T14:27:44;3.40;;;2.50;;
80698;SDS011;70062;51.658;5.658;2023-11-18T14:30:10;6.10;;;2.80;;
80698;SDS011;70062;51.658;5.658;2023-11-18T14:32:36;4.80;;;2.90;;
80698;SDS011;70062;51.658;5.658;2023-11-18T14:35:02;3.70;;;3.00;;
80698;SDS011;70062;51.658;5.658;2023-11-18T14:39:56;4.50;;;2.60;;
80698;SDS011;70062;51.658;5.658;2023-11-18T14:42:22;3.30;;;2.60;;
80698;SDS011;70062;51.658;5.658;2023-11-18T14:44:48;3.90;;;2.50;;
80698;SDS011;70062;51.658;5.658;2023-11-18T14:47:14;5.00;;;2.80;;
80698;SDS011;70062;51.658;5.658;2023-11-18T14:49:39;4.20;;;2.50;;
80698;SDS011;70062;51.658;5.658;2023-11-18T14:52:07;4.30;;;2.40;;
80698;SDS011;70062;51.658;5.658;2023-11-18T14:54:32;3.70;;;2.60;;
80698;SDS011;70062;51.658;5.658;2023-11-18T14:57:01;2.80;;;2.20;;
80698;SDS011;70062;51.658;5.658;2023-11-18T14:59:29;3.60;;;2.60;;
80698;SDS011;70062;51.658;5.658;2023-11-18T15:04:23;3.10;;;2.60;;
80698;SDS011;70062;51.658;5.658;2023-11-18T15:06:49;2.90;;;2.50;;
80698;SDS011;70062;51.658;5.658;2023-11-18T15:11:43;4.10;;;2.50;;
80698;SDS011;70062;51.658;5.658;2023-11-18T15:14:08;3.20;;;2.40;;
80698;SDS011;70062;51.658;5.658;2023-11-18T15:16:36;3.60;;;2.50;;
80698;SDS011;70062;51.658;5.658;2023-11-18T15:19:02;3.40;;;2.40;;
80698;SDS011;70062;51.658;5.658;2023-11-18T15:21:28;3.30;;;2.50;;
80698;SDS011;70062;51.658;5.658;2023-11-18T15:23:54;3.30;;;2.60;;
80698;SDS011;70062;51.658;5.658;2023-11-18T15:26:24;3.60;;;2.80;;
80698;SDS011;70062;51.658;5.658;2023-11-18T15:28:50;3.70;;;2.40;;
80698;SDS011;70062;51.658;5.658;2023-11-18T15:31:18;3.00;;;2.40;;
80698;SDS011;70062;51.658;5.658;2023-11-18T15:33:46;2.90;;;2.30;;
80698;SDS011;70062;51.658;5.658;2023-11-18T15:36:12;4.10;;;2.50;;
80698;SDS011;70062;51.658;5.658;2023-11-18T15:38:38;3.30;;;2.40;;
80698;SDS011;70062;51.658;5.658;2023-11-18T15:41:03;3.40;;;2.10;;
80698;SDS011;70062;51.658;5.658;2023-11-18T15:43:29;3.00;;;2.60;;
80698;SDS011;70062;51.658;5.658;2023-11-18T15:45:54;3.10;;;2.40;;
80698;SDS011;70062;51.658;5.658;2023-11-18T15:48:23;3.70;;;2.70;;
80698;SDS011;70062;51.658;5.658;2023-11-18T15:50:56;3.00;;;2.40;;
80698;SDS011;70062;51.658;5.658;2023-11-18T15:53:21;2.80;;;2.30;;
80698;SDS011;70062;51.658;5.658;2023-11-18T15:55:47;3.00;;;2.40;;
80698;SDS011;70062;51.658;5.658;2023-11-18T15:58:13;4.70;;;2.40;;
80698;SDS011;70062;51.658;5.658;2023-11-18T16:00:38;3.50;;;2.50;;
80698;SDS011;70062;51.658;5.658;2023-11-18T16:03:04;3.20;;;2.30;;
80698;SDS011;70062;51.658;5.658;2023-11-18T16:05:33;3.90;;;2.60;;
80698;SDS011;70062;51.658;5.658;2023-11-18T16:07:59;4.30;;;2.30;;
80698;SDS011;70062;51.658;5.658;2023-11-18T16:10:30;3.20;;;2.20;;
80698;SDS011;70062;51.658;5.658;2023-11-18T16:13:12;2.80;;;2.20;;
80698;SDS011;70062;51.658;5.658;2023-11-18T16:15:38;2.50;;;2.20;;
80698;SDS011;70062;51.658;5.658;2023-11-18T16:18:04;2.70;;;2.40;;
80698;SDS011;70062;51.658;5.658;2023-11-18T16:20:30;2.70;;;2.20;;
80698;SDS011;70062;51.658;5.658;2023-11-18T16:22:59;3.60;;;2.10;;
80698;SDS011;70062;51.658;5.658;2023-11-18T16:25:29;3.10;;;2.30;;
80698;SDS011;70062;51.658;5.658;2023-11-18T16:27:59;4.40;;;2.30;;